createdAt,value
2023-03-28T00:04:30.191Z,8.00
2023-03-28T00:09:53.196Z,6.82
2023-03-28T00:15:17.135Z,6.28
2023-03-28T00:20:43.613Z,9.90
2023-03-28T00:26:08.751Z,6.97
2023-03-28T00:31:35.554Z,7.55
2023-03-28T00:37:02.523Z,8.38
2023-03-28T00:42:26.324Z,5.93
2023-03-28T00:47:52.640Z,8.15
2023-03-28T00:53:22.461Z,5.20
2023-03-28T00:58:52.384Z,7.78
2023-03-28T01:04:22.270Z,4.97
2023-03-28T01:09:54.444Z,6.43
2023-03-28T01:15:16.472Z,6.78
2023-03-28T01:21:14.436Z,6.43
2023-03-28T01:26:48.916Z,6.13
2023-03-28T01:32:36.280Z,4.68
2023-03-28T01:38:17.585Z,5.03
2023-03-28T01:43:43.940Z,4.40
2023-03-28T01:49:09.037Z,4.13
2023-03-28T01:54:34.655Z,5.50
2023-03-28T02:00:01.629Z,6.75
2023-03-28T02:05:28.979Z,4.57
2023-03-28T02:10:55.087Z,4.75
2023-03-28T02:16:41.514Z,3.47
2023-03-28T02:22:32.385Z,7.28
2023-03-28T02:27:58.843Z,7.30
2023-03-28T02:33:43.403Z,5.47
2023-03-28T02:39:16.684Z,5.60
2023-03-28T02:44:51.500Z,5.07
2023-03-28T02:50:19.975Z,9.15
2023-03-28T02:55:45.626Z,17.95
2023-03-28T03:01:29.637Z,18.50
2023-03-28T03:06:52.461Z,17.35
2023-03-28T03:12:20.687Z,17.02
2023-03-28T03:17:44.200Z,16.38
2023-03-28T03:23:10.462Z,24.42
2023-03-28T03:28:37.178Z,17.98
2023-03-28T03:34:09.256Z,18.90
2023-03-28T03:39:44.097Z,14.00
2023-03-28T03:45:13.451Z,17.30
2023-03-28T03:50:45.278Z,9.55
2023-03-28T03:56:14.045Z,7.47
2023-03-28T04:01:55.769Z,12.35
2023-03-28T04:07:49.086Z,11.80
2023-03-28T04:13:22.525Z,13.02
2023-03-28T04:18:53.064Z,22.35
2023-03-28T04:24:21.338Z,16.65
2023-03-28T04:29:54.875Z,20.73
2023-03-28T04:35:43.397Z,15.68
2023-03-28T04:41:08.459Z,17.20
2023-03-28T04:46:58.374Z,19.67
2023-03-28T04:52:22.176Z,16.20
2023-03-28T04:57:46.729Z,18.20
2023-03-28T05:03:13.094Z,17.65
2023-03-28T05:08:59.907Z,20.87
2023-03-28T05:14:32.416Z,12.82
2023-03-28T05:20:10.666Z,12.18
2023-03-28T05:25:50.886Z,13.05
2023-03-28T05:31:17.275Z,6.30
2023-03-28T05:36:45.550Z,8.70
2023-03-28T05:42:21.215Z,9.70
2023-03-28T05:47:46.318Z,7.95
2023-03-28T05:53:11.610Z,5.70
2023-03-28T05:58:34.850Z,7.13
2023-03-28T06:03:59.950Z,9.30
2023-03-28T06:09:22.753Z,8.80
2023-03-28T06:20:27.422Z,7.85
2023-03-28T06:25:51.803Z,9.23
2023-03-28T06:31:17.076Z,5.97
2023-03-28T06:36:41.803Z,8.25
2023-03-28T06:42:04.908Z,5.72
2023-03-28T06:47:38.304Z,5.25
2023-03-28T06:53:03.634Z,4.07
2023-03-28T06:58:27.809Z,4.53
2023-03-28T07:03:57.737Z,4.47
2023-03-28T07:09:22.996Z,8.73
2023-03-28T07:14:52.404Z,4.93
2023-03-28T07:20:15.529Z,4.18
2023-03-28T07:25:41.164Z,5.50
2023-03-28T07:31:04.768Z,4.30
2023-03-28T07:36:35.028Z,4.55
2023-03-28T07:42:10.702Z,6.97
2023-03-28T07:47:33.960Z,4.57
2023-03-28T07:52:58.046Z,3.78
2023-03-28T07:58:25.198Z,7.03
2023-03-28T08:03:51.702Z,3.75
2023-03-28T08:09:16.810Z,4.15
2023-03-28T08:14:44.520Z,8.73
2023-03-28T08:20:11.332Z,5.38
2023-03-28T08:26:07.329Z,4.75
2023-03-28T08:31:33.746Z,4.05
2023-03-28T08:37:06.286Z,5.63
2023-03-28T08:42:38.927Z,5.40
2023-03-28T08:48:07.734Z,10.68
2023-03-28T08:53:34.462Z,5.13
2023-03-28T08:59:02.507Z,5.13
2023-03-28T09:04:28.757Z,3.75
2023-03-28T09:10:08.487Z,15.77
2023-03-28T09:15:51.885Z,5.90
2023-03-28T09:21:24.916Z,5.10
2023-03-28T09:26:49.077Z,5.03
2023-03-28T09:32:21.555Z,5.32
2023-03-28T09:37:48.236Z,5.28
2023-03-28T09:43:15.375Z,4.82
2023-03-28T09:48:46.610Z,5.88
2023-03-28T09:54:13.620Z,4.90
2023-03-28T09:59:37.182Z,4.47
2023-03-28T10:05:06.454Z,5.90
2023-03-28T10:10:58.172Z,6.65
2023-03-28T10:16:23.506Z,6.93
2023-03-28T10:22:07.426Z,12.95
2023-03-28T10:27:36.120Z,6.85
2023-03-28T10:33:25.111Z,5.95
2023-03-28T10:39:21.630Z,5.13
2023-03-28T10:45:23.846Z,3.67
2023-03-28T10:50:49.331Z,3.90
2023-03-28T10:56:19.553Z,4.18
2023-03-28T11:01:51.625Z,6.30
2023-03-28T11:07:19.247Z,4.32
2023-03-28T11:13:01.098Z,3.22
2023-03-28T11:18:44.189Z,8.05
2023-03-28T11:24:16.977Z,4.93
2023-03-28T11:29:53.134Z,21.92
2023-03-28T11:35:23.493Z,14.13
2023-03-28T11:40:50.382Z,3.83
2023-03-28T11:46:18.023Z,3.23
2023-03-28T11:51:46.800Z,3.58
2023-03-28T11:57:16.064Z,5.35
2023-03-28T12:02:52.910Z,5.32
2023-03-28T12:08:24.538Z,3.40
2023-03-28T12:13:55.397Z,4.22
2023-03-28T12:19:31.111Z,3.45
2023-03-28T12:25:06.062Z,3.78
2023-03-28T12:30:35.953Z,5.28
2023-03-28T12:36:03.638Z,6.65
2023-03-28T12:41:31.309Z,7.82
2023-03-28T12:46:56.401Z,6.53
2023-03-28T12:52:25.382Z,5.72
2023-03-28T12:58:12.678Z,10.80
2023-03-28T13:03:52.421Z,7.00
2023-03-28T13:09:32.264Z,7.57
2023-03-28T13:15:01.096Z,10.85
2023-03-28T13:20:26.822Z,9.43
2023-03-28T13:25:54.016Z,8.43
2023-03-28T13:31:23.052Z,8.50
2023-03-28T13:36:51.051Z,10.87
2023-03-28T13:42:27.132Z,9.63
2023-03-28T13:48:02.748Z,9.88
2023-03-28T13:53:46.527Z,9.38
2023-03-28T13:59:14.678Z,9.38
2023-03-28T14:04:39.636Z,9.02
2023-03-28T14:10:03.214Z,8.38
2023-03-28T14:15:30.344Z,11.20
2023-03-28T14:21:00.448Z,7.78
2023-03-28T14:26:26.498Z,7.43
2023-03-28T14:31:49.924Z,9.57
2023-03-28T14:37:18.451Z,11.02
2023-03-28T14:42:43.231Z,9.13
2023-03-28T14:48:07.903Z,15.15
2023-03-28T14:53:36.796Z,8.25
2023-03-28T14:59:01.622Z,14.57
2023-03-28T15:04:26.592Z,11.10
2023-03-28T15:10:06.591Z,11.23
2023-03-28T15:20:55.472Z,15.95
2023-03-28T15:26:25.518Z,14.85
2023-03-28T15:31:48.962Z,10.68
2023-03-28T15:37:21.135Z,16.42
2023-03-28T15:42:47.389Z,14.98
2023-03-28T15:48:20.086Z,13.63
2023-03-28T15:53:43.415Z,15.35
2023-03-28T15:59:14.073Z,18.55
2023-03-28T16:04:37.686Z,14.52
2023-03-28T16:10:00.851Z,18.80
2023-03-28T16:15:25.559Z,19.90
2023-03-28T16:20:55.034Z,14.77
2023-03-28T16:26:18.266Z,19.08
2023-03-28T16:31:43.484Z,10.68
2023-03-28T16:37:08.978Z,16.02
2023-03-28T16:42:32.152Z,15.20
2023-03-28T16:47:56.691Z,22.63
2023-03-28T16:53:19.067Z,12.35
2023-03-28T16:58:42.306Z,10.93
2023-03-28T17:04:06.964Z,7.80
2023-03-28T17:09:31.069Z,6.00
2023-03-28T17:14:53.610Z,4.00
2023-03-28T17:20:18.547Z,4.85
2023-03-28T17:25:54.026Z,7.10
2023-03-28T17:31:25.205Z,2.63
2023-03-28T17:36:51.067Z,4.63
2023-03-28T17:42:13.931Z,2.58
2023-03-28T17:47:36.589Z,3.42
2023-03-28T17:53:01.492Z,2.33
2023-03-28T17:58:24.812Z,2.05
2023-03-28T18:03:48.038Z,2.80
2023-03-28T18:09:30.387Z,2.08
2023-03-28T18:14:53.869Z,1.60
2023-03-28T18:20:17.304Z,1.50
2023-03-28T18:25:42.343Z,3.17
2023-03-28T18:31:08.877Z,2.42
2023-03-28T18:36:31.460Z,3.83
2023-03-28T18:41:55.279Z,5.53
2023-03-28T18:47:18.547Z,8.32
2023-03-28T18:52:44.612Z,8.10
2023-03-28T18:58:10.439Z,8.50
2023-03-28T19:03:38.522Z,8.32
2023-03-28T19:09:01.657Z,7.07
2023-03-28T19:14:26.904Z,6.43
2023-03-28T19:19:49.722Z,4.60
2023-03-28T19:25:12.717Z,5.38
2023-03-28T19:30:40.622Z,9.63
2023-03-28T19:36:03.812Z,8.90
2023-03-28T19:41:27.847Z,8.30
2023-03-28T19:46:52.579Z,6.82
2023-03-28T19:52:15.602Z,4.60
2023-03-28T19:57:38.898Z,4.60
2023-03-28T20:03:04.056Z,6.70
2023-03-28T20:08:27.754Z,4.20
2023-03-28T20:13:50.812Z,3.70
2023-03-28T20:19:17.989Z,3.17
2023-03-28T20:24:41.393Z,3.42
2023-03-28T20:30:11.246Z,3.55
2023-03-28T20:35:36.495Z,2.83
2023-03-28T20:41:00.018Z,5.55
2023-03-28T20:46:23.855Z,5.93
2023-03-28T20:51:50.350Z,8.25
2023-03-28T20:57:13.675Z,6.18
2023-03-28T21:02:36.497Z,4.18
2023-03-28T21:08:02.427Z,5.35
2023-03-28T21:13:26.421Z,3.92
2023-03-28T21:18:49.329Z,2.92
2023-03-28T21:24:14.189Z,1.90
2023-03-28T21:29:37.813Z,2.30
2023-03-28T21:35:01.029Z,6.68
2023-03-28T21:40:25.820Z,3.30
2023-03-28T21:45:50.028Z,3.20
2023-03-28T21:51:13.953Z,2.78
2023-03-28T21:56:38.497Z,2.13
2023-03-28T22:02:01.551Z,2.47
2023-03-28T22:07:24.364Z,2.03
2023-03-28T22:12:48.741Z,2.03
2023-03-28T22:18:12.280Z,2.95
2023-03-28T22:23:35.148Z,3.08
2023-03-28T22:28:59.595Z,4.47
2023-03-28T22:34:22.492Z,4.82
2023-03-28T22:39:49.653Z,4.35
2023-03-28T22:45:14.097Z,3.25
2023-03-28T22:50:41.415Z,3.65
2023-03-28T22:56:06.583Z,3.03
2023-03-28T23:01:35.623Z,2.42
2023-03-28T23:07:04.109Z,2.15
2023-03-28T23:12:26.971Z,2.65
2023-03-28T23:17:52.206Z,2.40
2023-03-28T23:23:21.194Z,2.35
2023-03-28T23:28:42.966Z,4.18
2023-03-28T23:34:12.539Z,2.85
2023-03-28T23:39:39.609Z,7.63
2023-03-28T23:45:08.745Z,16.17
2023-03-28T23:50:37.159Z,9.00
2023-03-28T23:56:00.899Z,6.30
